createdAt,value
2022-08-13T00:00:54.046Z,16.70
2022-08-13T00:03:58.172Z,15.30
2022-08-13T00:06:21.900Z,15.40
2022-08-13T00:08:54.865Z,15.10
2022-08-13T00:14:35.709Z,14.80
2022-08-13T00:17:04.889Z,15.00
2022-08-13T00:19:35.307Z,15.10
2022-08-13T00:22:28.212Z,15.10
2022-08-13T00:24:52.379Z,14.90
2022-08-13T00:32:15.434Z,15.00
2022-08-13T00:34:44.789Z,15.40
2022-08-13T00:37:11.684Z,14.90
2022-08-13T00:40:17.705Z,14.80
2022-08-13T00:42:26.582Z,14.80
2022-08-13T00:44:53.217Z,14.50
2022-08-13T00:47:39.557Z,14.40
2022-08-13T00:50:06.626Z,13.40
2022-08-13T00:52:39.419Z,14.00
2022-08-13T00:55:08.505Z,13.90
2022-08-13T00:57:35.577Z,13.70
2022-08-13T01:00:11.923Z,13.50
2022-08-13T01:02:56.709Z,13.70
2022-08-13T01:05:27.945Z,13.80
2022-08-13T01:07:59.297Z,13.60
2022-08-13T01:10:28.025Z,14.70
2022-08-13T01:12:55.571Z,13.20
2022-08-13T01:15:25.148Z,14.00
2022-08-13T01:17:57.765Z,13.90
2022-08-13T01:20:32.748Z,13.90
2022-08-13T01:23:01.358Z,14.00
2022-08-13T01:25:29.657Z,14.70
2022-08-13T01:27:56.534Z,14.10
2022-08-13T01:30:23.988Z,14.70
2022-08-13T01:32:55.351Z,13.90
2022-08-13T01:35:25.430Z,14.00
2022-08-13T01:37:59.159Z,13.90
2022-08-13T01:40:26.816Z,13.90
2022-08-13T01:42:55.972Z,14.10
2022-08-13T01:45:23.080Z,14.00
2022-08-13T01:48:23.051Z,14.00
2022-08-13T01:50:52.043Z,14.10
2022-08-13T01:53:22.700Z,13.70
2022-08-13T01:56:15.179Z,13.50
2022-08-13T01:59:09.501Z,13.60
2022-08-13T02:01:41.517Z,13.60
2022-08-13T02:04:11.362Z,13.80
2022-08-13T02:06:41.099Z,13.80
2022-08-13T02:09:23.344Z,13.70
2022-08-13T02:11:57.292Z,13.70
2022-08-13T02:14:27.675Z,13.60
2022-08-13T02:16:54.293Z,13.50
2022-08-13T02:19:30.347Z,13.40
2022-08-13T02:22:00.790Z,13.50
2022-08-13T02:24:29.665Z,13.20
2022-08-13T02:26:59.067Z,13.30
2022-08-13T02:29:26.369Z,13.00
2022-08-13T02:32:15.022Z,13.20
2022-08-13T02:34:41.013Z,12.70
2022-08-13T02:37:21.130Z,12.90
2022-08-13T02:39:57.947Z,13.20
2022-08-13T02:42:24.639Z,12.90
2022-08-13T02:44:51.990Z,13.30
2022-08-13T02:47:19.988Z,12.80
2022-08-13T02:50:01.004Z,12.90
2022-08-13T02:52:30.022Z,13.10
2022-08-13T02:54:58.033Z,13.60
2022-08-13T02:57:27.164Z,13.30
2022-08-13T03:00:02.522Z,13.30
2022-08-13T03:02:39.782Z,13.20
2022-08-13T03:05:08.273Z,13.10
2022-08-13T03:07:51.808Z,13.10
2022-08-13T03:10:34.461Z,14.00
2022-08-13T03:13:23.916Z,13.60
2022-08-13T03:15:55.235Z,13.00
2022-08-13T03:18:52.007Z,13.60
2022-08-13T03:21:42.010Z,13.00
2022-08-13T03:24:07.498Z,12.80
2022-08-13T03:26:34.473Z,12.70
2022-08-13T03:29:02.785Z,12.70
2022-08-13T03:31:35.457Z,12.70
2022-08-13T03:34:21.442Z,12.80
2022-08-13T03:36:49.845Z,13.00
2022-08-13T03:39:17.479Z,12.50
2022-08-13T03:41:51.354Z,12.40
2022-08-13T03:44:20.311Z,13.10
2022-08-13T03:46:55.556Z,12.60
2022-08-13T03:49:22.154Z,12.70
2022-08-13T03:51:53.254Z,12.70
2022-08-13T03:54:26.184Z,12.70
2022-08-13T03:56:56.587Z,11.80
2022-08-13T03:59:46.094Z,12.30
2022-08-13T04:02:18.102Z,12.50
2022-08-13T04:04:49.708Z,12.60
2022-08-13T04:07:26.498Z,12.50
2022-08-13T04:09:58.579Z,12.50
2022-08-13T04:14:59.024Z,12.30
2022-08-13T04:17:29.561Z,12.00
2022-08-13T04:20:01.051Z,11.90
2022-08-13T04:22:28.884Z,11.80
2022-08-13T04:24:56.374Z,11.80
2022-08-13T04:27:23.626Z,11.80
2022-08-13T04:29:52.651Z,12.20
2022-08-13T04:32:26.614Z,12.40
2022-08-13T04:37:24.000Z,12.60
2022-08-13T04:40:08.227Z,12.90
2022-08-13T04:42:49.281Z,12.70
2022-08-13T04:45:17.287Z,12.30
2022-08-13T04:47:45.131Z,12.50
2022-08-13T04:50:12.435Z,12.60
2022-08-13T04:52:40.445Z,12.70
2022-08-13T04:55:08.735Z,12.80
2022-08-13T04:57:56.098Z,12.40
2022-08-13T05:00:36.380Z,12.30
2022-08-13T05:03:10.706Z,12.50
2022-08-13T05:05:42.351Z,12.80
2022-08-13T05:10:39.176Z,12.90
2022-08-13T05:15:42.696Z,13.10
2022-08-13T05:18:27.798Z,14.00
2022-08-13T05:21:04.964Z,13.40
2022-08-13T05:26:09.322Z,13.50
2022-08-13T05:26:39.207Z,15.10
2022-08-13T05:31:55.317Z,14.90
2022-08-13T05:34:25.671Z,13.60
2022-08-13T05:38:09.731Z,13.60
2022-08-13T05:39:42.566Z,13.70
2022-08-13T05:42:26.536Z,13.70
2022-08-13T05:44:56.881Z,13.70
2022-08-13T05:47:24.920Z,13.80
2022-08-13T05:49:54.757Z,14.10
2022-08-13T05:52:37.268Z,15.10
2022-08-13T05:56:07.283Z,14.60
2022-08-13T06:00:44.850Z,14.70
2022-08-13T06:04:14.945Z,14.90
2022-08-13T06:06:24.454Z,15.10
2022-08-13T06:08:59.345Z,15.40
2022-08-13T06:12:26.375Z,15.50
2022-08-13T06:14:22.375Z,15.90
2022-08-13T06:24:29.515Z,16.20
2022-08-13T06:29:30.661Z,16.80
2022-08-13T07:00:04.558Z,20.80
2022-08-13T07:02:23.438Z,20.90
2022-08-13T07:04:58.484Z,21.00
2022-08-13T07:09:53.244Z,21.10
2022-08-13T07:17:27.069Z,21.60
2022-08-13T07:24:36.515Z,22.20
2022-08-13T07:25:23.660Z,22.30
2022-08-13T07:28:12.501Z,22.30
2022-08-13T07:33:11.253Z,22.60
2022-08-13T07:35:52.481Z,22.50
2022-08-13T07:40:49.732Z,22.50
2022-08-13T07:43:17.906Z,22.00
2022-08-13T07:46:24.579Z,23.70
2022-08-13T07:48:48.913Z,22.90
2022-08-13T07:51:22.757Z,23.30
2022-08-13T07:53:55.742Z,23.40
2022-08-13T07:56:32.948Z,24.10
2022-08-13T07:59:04.989Z,24.40
2022-08-13T08:02:21.332Z,24.60
2022-08-13T08:04:30.304Z,25.00
2022-08-13T08:06:57.846Z,25.00
2022-08-13T08:09:25.695Z,25.10
2022-08-13T08:12:17.042Z,25.50
2022-08-13T08:14:54.912Z,25.20
2022-08-13T08:18:16.748Z,26.80
2022-08-13T08:20:20.058Z,26.20
2022-08-13T08:22:47.352Z,25.30
2022-08-13T08:30:34.430Z,24.70
2022-08-13T08:33:02.862Z,25.20
2022-08-13T08:35:32.496Z,26.90
2022-08-13T08:38:33.592Z,25.60
2022-08-13T08:41:20.323Z,25.70
2022-08-13T08:43:49.845Z,26.60
2022-08-13T08:46:17.641Z,25.90
2022-08-13T08:48:48.048Z,26.00
2022-08-13T08:51:19.779Z,26.40
2022-08-13T08:54:11.012Z,26.50
2022-08-13T08:56:36.058Z,27.00
2022-08-13T08:59:03.779Z,26.00
2022-08-13T09:04:06.904Z,27.00
2022-08-13T09:09:21.748Z,27.30
2022-08-13T09:11:54.884Z,28.10
2022-08-13T09:14:34.320Z,27.40
2022-08-13T09:17:13.130Z,28.20
2022-08-13T09:37:26.870Z,28.70
2022-08-13T09:39:57.963Z,28.40
2022-08-13T09:44:54.473Z,28.50
2022-08-13T09:48:33.059Z,28.40
2022-08-13T09:50:09.881Z,28.30
2022-08-13T09:52:36.812Z,28.10
2022-08-13T09:55:05.410Z,28.50
2022-08-13T09:57:33.965Z,28.80
2022-08-13T10:02:27.846Z,29.40
2022-08-13T10:07:25.344Z,29.30
2022-08-13T10:38:06.075Z,29.60
2022-08-13T10:45:34.307Z,30.00
2022-08-13T10:50:32.693Z,29.10
2022-08-13T11:07:54.738Z,31.50
2022-08-13T11:10:22.510Z,30.30
2022-08-13T11:17:59.073Z,32.50
2022-08-13T11:20:28.364Z,32.50
2022-08-13T11:22:59.437Z,32.60
2022-08-13T11:25:55.396Z,32.30
2022-08-13T11:28:16.598Z,33.30
2022-08-13T11:45:44.176Z,33.90
2022-08-13T11:56:00.437Z,33.80
2022-08-13T11:58:44.885Z,33.90
2022-08-13T12:01:16.090Z,34.50
2022-08-13T12:06:30.661Z,33.80
2022-08-13T12:09:22.279Z,35.20
2022-08-13T12:19:25.887Z,34.30
2022-08-13T12:34:08.529Z,37.10
2022-08-13T12:36:35.579Z,36.80
2022-08-13T12:39:02.416Z,36.50
2022-08-13T12:41:38.990Z,35.80
2022-08-13T12:45:09.649Z,36.30
2022-08-13T12:47:00.719Z,37.40
2022-08-13T12:49:27.900Z,36.30
2022-08-13T12:51:56.168Z,35.50
2022-08-13T12:54:39.877Z,35.30
2022-08-13T12:57:26.725Z,36.30
2022-08-13T13:02:31.155Z,35.10
2022-08-13T13:05:16.289Z,35.80
2022-08-13T13:08:06.661Z,36.20
2022-08-13T13:10:30.850Z,36.70
2022-08-13T13:13:01.885Z,37.50
2022-08-13T13:15:42.247Z,36.70
2022-08-13T13:21:03.984Z,36.90
2022-08-13T13:23:59.689Z,37.00
2022-08-13T13:28:58.650Z,36.60
2022-08-13T13:31:26.715Z,36.10
2022-08-13T13:33:55.520Z,36.10
2022-08-13T13:36:22.556Z,36.80
2022-08-13T13:38:55.654Z,37.00
2022-08-13T13:41:49.408Z,37.30
2022-08-13T13:44:33.816Z,37.50
2022-08-13T15:40:59.795Z,35.60
2022-08-13T15:43:37.105Z,36.00
2022-08-13T15:46:11.311Z,37.50
2022-08-13T15:48:45.674Z,36.10
2022-08-13T15:51:28.405Z,36.50
2022-08-13T15:53:57.304Z,37.40
2022-08-13T15:56:34.819Z,37.40
2022-08-13T15:59:05.935Z,36.80
2022-08-13T16:01:40.148Z,37.10
2022-08-13T16:04:16.380Z,37.70
2022-08-13T16:06:47.501Z,36.30
2022-08-13T16:09:16.484Z,34.90
2022-08-13T16:11:47.439Z,34.70
2022-08-13T16:14:18.888Z,32.30
2022-08-13T16:16:53.160Z,33.50
2022-08-13T16:22:07.914Z,29.90
2022-08-13T16:24:37.373Z,31.00
2022-08-13T16:27:06.519Z,29.60
2022-08-13T16:29:37.714Z,30.80
2022-08-13T16:32:12.045Z,32.80
2022-08-13T16:34:44.157Z,32.70
2022-08-13T16:37:20.265Z,33.60
2022-08-13T16:39:48.684Z,34.70
2022-08-13T16:42:15.466Z,33.40
2022-08-13T16:44:42.587Z,33.10
2022-08-13T16:47:14.950Z,33.30
2022-08-13T16:52:11.072Z,31.50
2022-08-13T16:54:40.213Z,30.60
2022-08-13T16:57:08.542Z,30.00
2022-08-13T16:59:41.059Z,29.60
2022-08-13T17:02:09.096Z,29.10
2022-08-13T17:05:16.939Z,29.00
2022-08-13T17:08:30.284Z,28.40
2022-08-13T17:13:31.015Z,28.40
2022-08-13T17:16:05.460Z,28.10
2022-08-13T17:18:48.480Z,28.10
2022-08-13T17:21:25.446Z,27.60
2022-08-13T17:24:07.464Z,28.10
2022-08-13T17:26:34.680Z,27.50
2022-08-13T17:29:22.474Z,27.40
2022-08-13T17:32:00.000Z,28.10
2022-08-13T17:34:30.427Z,27.90
2022-08-13T17:37:05.770Z,27.30
2022-08-13T17:39:47.472Z,27.30
2022-08-13T17:44:00.395Z,28.00
2022-08-13T17:45:28.909Z,27.20
2022-08-13T17:48:01.478Z,27.20
2022-08-13T17:50:31.569Z,26.40
2022-08-13T17:52:58.751Z,26.90
2022-08-13T17:55:25.358Z,26.80
2022-08-13T17:58:09.880Z,26.30
2022-08-13T18:00:40.980Z,28.20
2022-08-13T18:05:55.454Z,26.60
2022-08-13T18:08:37.076Z,26.50
2022-08-13T18:11:06.626Z,26.00
2022-08-13T18:14:04.013Z,26.40
2022-08-13T18:17:01.448Z,26.30
2022-08-13T18:24:18.470Z,26.00
2022-08-13T18:26:57.858Z,25.70
2022-08-13T18:29:56.539Z,25.40
2022-08-13T18:34:50.359Z,25.50
2022-08-13T18:52:02.397Z,24.90
2022-08-13T18:54:36.732Z,23.80
2022-08-13T18:57:13.735Z,24.60
2022-08-13T18:59:42.143Z,23.90
2022-08-13T19:04:38.199Z,24.60
2022-08-13T19:07:38.138Z,24.50
2022-08-13T19:10:10.551Z,23.80
2022-08-13T19:12:37.529Z,24.40
2022-08-13T19:15:16.510Z,24.40
2022-08-13T19:17:55.845Z,24.30
2022-08-13T19:20:35.893Z,24.20
2022-08-13T19:23:07.667Z,24.20
2022-08-13T19:25:54.616Z,24.10
2022-08-13T19:49:06.599Z,23.60
2022-08-13T19:51:34.350Z,23.60
2022-08-13T19:54:01.840Z,23.20
2022-08-13T19:56:35.110Z,22.60
2022-08-13T19:59:03.823Z,24.40
2022-08-13T20:01:30.668Z,23.30
2022-08-13T20:03:57.710Z,22.60
2022-08-13T20:06:29.426Z,22.60
2022-08-13T20:09:01.493Z,22.60
2022-08-13T20:11:28.213Z,24.00
2022-08-13T20:23:52.263Z,23.00
2022-08-13T20:26:19.563Z,22.80
2022-08-13T20:28:48.918Z,22.80
2022-08-13T20:31:16.874Z,22.80
2022-08-13T20:33:44.217Z,21.90
2022-08-13T20:36:12.525Z,22.30
2022-08-13T20:38:39.862Z,20.80
2022-08-13T20:41:14.428Z,22.10
2022-08-13T20:43:57.849Z,22.70
2022-08-13T20:51:27.072Z,21.90
2022-08-13T20:56:34.038Z,21.90
2022-08-13T21:00:43.262Z,21.80
2022-08-13T21:01:54.344Z,21.70
2022-08-13T21:04:21.768Z,21.10
2022-08-13T21:09:18.007Z,21.70
2022-08-13T21:16:56.675Z,21.40
2022-08-13T21:19:37.757Z,21.10
2022-08-13T21:22:06.913Z,21.30
2022-08-13T21:24:36.393Z,21.00
2022-08-13T21:27:24.648Z,21.10
2022-08-13T21:30:03.814Z,21.30
2022-08-13T21:32:32.904Z,21.10
2022-08-13T21:35:00.568Z,21.10
2022-08-13T21:37:28.249Z,21.20
2022-08-13T21:39:58.745Z,21.80
2022-08-13T21:42:29.280Z,21.10
2022-08-13T21:45:02.780Z,20.10
2022-08-13T21:47:29.511Z,20.20
2022-08-13T21:49:56.571Z,19.90
2022-08-13T21:52:24.537Z,20.80
2022-08-13T21:54:58.560Z,20.70
2022-08-13T21:59:53.346Z,20.70
2022-08-13T22:05:00.516Z,20.00
2022-08-13T22:10:09.333Z,20.00
2022-08-13T22:12:35.981Z,19.90
2022-08-13T22:15:03.288Z,19.20
2022-08-13T22:17:30.351Z,20.20
2022-08-13T22:19:58.621Z,20.20
2022-08-13T22:22:25.977Z,20.20
2022-08-13T22:24:55.289Z,20.20
2022-08-13T22:27:23.036Z,20.20
2022-08-13T22:30:12.773Z,19.90
2022-08-13T22:52:33.007Z,19.40
2022-08-13T22:54:59.827Z,19.20
2022-08-13T22:57:26.768Z,19.20
2022-08-13T22:59:55.628Z,19.20
2022-08-13T23:02:22.329Z,19.30
2022-08-13T23:04:49.736Z,19.10
2022-08-13T23:07:16.626Z,19.30
2022-08-13T23:09:43.625Z,19.40
2022-08-13T23:12:10.817Z,19.30
2022-08-13T23:14:39.761Z,18.90
2022-08-13T23:17:08.429Z,18.80
2022-08-13T23:19:37.660Z,18.90
2022-08-13T23:22:05.770Z,18.90
2022-08-13T23:24:32.585Z,18.90
2022-08-13T23:26:59.413Z,19.10
2022-08-13T23:29:26.075Z,17.90
2022-08-13T23:31:58.368Z,18.00
2022-08-13T23:36:54.483Z,18.30
2022-08-13T23:39:22.187Z,17.30
2022-08-13T23:44:22.250Z,17.90
2022-08-13T23:47:04.793Z,17.80
2022-08-13T23:49:31.517Z,18.00
2022-08-13T23:51:58.187Z,19.00
2022-08-13T23:54:26.043Z,17.30
2022-08-13T23:57:00.957Z,19.40
2022-08-13T23:59:30.935Z,19.20
